sensor_id;sensor_type;location;lat;lon;timestamp;temperature;humidity
25154;DHT22;47555;51.038;6.280;2022-11-30T00:01:16;6.60;99.90
25154;DHT22;47555;51.038;6.280;2022-11-30T00:03:45;6.60;99.90
25154;DHT22;47555;51.038;6.280;2022-11-30T00:06:12;6.60;99.90
25154;DHT22;47555;51.038;6.280;2022-11-30T00:08:41;6.60;99.90
25154;DHT22;47555;51.038;6.280;2022-11-30T00:11:14;6.60;99.90
25154;DHT22;47555;51.038;6.280;2022-11-30T00:13:52;6.60;99.90
25154;DHT22;47555;51.038;6.280;2022-11-30T00:16:20;6.70;99.90
25154;DHT22;47555;51.038;6.280;2022-11-30T00:18:48;6.60;99.90
25154;DHT22;47555;51.038;6.280;2022-11-30T00:21:17;6.70;99.90
25154;DHT22;47555;51.038;6.280;2022-11-30T00:23:46;6.70;99.90
25154;DHT22;47555;51.038;6.280;2022-11-30T00:26:17;6.70;99.90
25154;DHT22;47555;51.038;6.280;2022-11-30T00:28:46;6.70;99.90
25154;DHT22;47555;51.038;6.280;2022-11-30T00:31:20;6.70;99.90
25154;DHT22;47555;51.038;6.280;2022-11-30T00:33:46;6.70;99.90
25154;DHT22;47555;51.038;6.280;2022-11-30T00:36:21;6.80;99.90
25154;DHT22;47555;51.038;6.280;2022-11-30T00:38:48;6.70;99.90
25154;DHT22;47555;51.038;6.280;2022-11-30T00:41:14;6.80;99.90
25154;DHT22;47555;51.038;6.280;2022-11-30T00:43:40;6.80;99.90
25154;DHT22;47555;51.038;6.280;2022-11-30T00:46:08;6.80;99.90
25154;DHT22;47555;51.038;6.280;2022-11-30T00:48:37;6.80;99.90
25154;DHT22;47555;51.038;6.280;2022-11-30T00:51:03;6.80;99.90
25154;DHT22;47555;51.038;6.280;2022-11-30T00:53:39;6.80;99.90
25154;DHT22;47555;51.038;6.280;2022-11-30T00:56:05;6.80;99.90
25154;DHT22;47555;51.038;6.280;2022-11-30T00:58:34;6.80;99.90
25154;DHT22;47555;51.038;6.280;2022-11-30T01:00:59;6.80;99.90
25154;DHT22;47555;51.038;6.280;2022-11-30T01:03:27;6.80;99.90
25154;DHT22;47555;51.038;6.280;2022-11-30T01:05:53;6.80;99.90
25154;DHT22;47555;51.038;6.280;2022-11-30T01:08:21;6.90;99.90
25154;DHT22;47555;51.038;6.280;2022-11-30T01:10:47;6.80;99.90
25154;DHT22;47555;51.038;6.280;2022-11-30T01:13:17;6.90;99.90
25154;DHT22;47555;51.038;6.280;2022-11-30T01:15:43;6.90;99.90
25154;DHT22;47555;51.038;6.280;2022-11-30T01:18:09;6.90;99.90
25154;DHT22;47555;51.038;6.280;2022-11-30T01:20:34;6.90;99.90
25154;DHT22;47555;51.038;6.280;2022-11-30T01:23:03;6.80;99.90
25154;DHT22;47555;51.038;6.280;2022-11-30T01:25:29;6.90;99.90
25154;DHT22;47555;51.038;6.280;2022-11-30T01:27:56;6.90;99.90
25154;DHT22;47555;51.038;6.280;2022-11-30T01:30:27;6.90;99.90
25154;DHT22;47555;51.038;6.280;2022-11-30T01:33:01;6.90;99.90
25154;DHT22;47555;51.038;6.280;2022-11-30T01:35:26;6.90;99.90
25154;DHT22;47555;51.038;6.280;2022-11-30T01:37:52;6.90;99.90
25154;DHT22;47555;51.038;6.280;2022-11-30T01:40:20;6.90;99.90
25154;DHT22;47555;51.038;6.280;2022-11-30T01:42:48;6.80;99.90
25154;DHT22;47555;51.038;6.280;2022-11-30T01:45:16;6.90;99.90
25154;DHT22;47555;51.038;6.280;2022-11-30T01:47:53;6.90;99.90
25154;DHT22;47555;51.038;6.280;2022-11-30T01:50:27;6.90;99.90
25154;DHT22;47555;51.038;6.280;2022-11-30T01:52:56;6.90;99.90
25154;DHT22;47555;51.038;6.280;2022-11-30T01:55:39;6.80;99.90
25154;DHT22;47555;51.038;6.280;2022-11-30T01:58:26;6.90;99.90
25154;DHT22;47555;51.038;6.280;2022-11-30T02:01:03;6.90;99.90
25154;DHT22;47555;51.038;6.280;2022-11-30T02:03:46;6.90;99.90
25154;DHT22;47555;51.038;6.280;2022-11-30T02:06:16;6.90;99.90
25154;DHT22;47555;51.038;6.280;2022-11-30T02:08:42;6.90;99.90
25154;DHT22;47555;51.038;6.280;2022-11-30T02:11:11;6.90;99.90
25154;DHT22;47555;51.038;6.280;2022-11-30T02:14:07;6.90;99.90
25154;DHT22;47555;51.038;6.280;2022-11-30T02:16:49;6.90;99.90
25154;DHT22;47555;51.038;6.280;2022-11-30T02:19:53;6.90;99.90
25154;DHT22;47555;51.038;6.280;2022-11-30T02:22:56;6.90;99.90
25154;DHT22;47555;51.038;6.280;2022-11-30T02:28:37;6.90;99.90
25154;DHT22;47555;51.038;6.280;2022-11-30T02:31:07;6.90;99.90
25154;DHT22;47555;51.038;6.280;2022-11-30T02:33:37;6.90;99.90
25154;DHT22;47555;51.038;6.280;2022-11-30T02:36:06;6.90;99.90
25154;DHT22;47555;51.038;6.280;2022-11-30T02:38:35;6.90;99.90
25154;DHT22;47555;51.038;6.280;2022-11-30T02:41:02;6.90;99.90
25154;DHT22;47555;51.038;6.280;2022-11-30T02:43:28;7.00;99.90
25154;DHT22;47555;51.038;6.280;2022-11-30T02:48:44;6.90;99.90
25154;DHT22;47555;51.038;6.280;2022-11-30T02:51:16;7.00;99.90
25154;DHT22;47555;51.038;6.280;2022-11-30T02:53:43;7.00;99.90
25154;DHT22;47555;51.038;6.280;2022-11-30T02:56:11;7.00;99.90
25154;DHT22;47555;51.038;6.280;2022-11-30T02:58:40;6.90;99.90
25154;DHT22;47555;51.038;6.280;2022-11-30T03:01:05;6.90;99.90
25154;DHT22;47555;51.038;6.280;2022-11-30T03:03:31;6.90;99.90
25154;DHT22;47555;51.038;6.280;2022-11-30T03:05:57;6.90;99.90
25154;DHT22;47555;51.038;6.280;2022-11-30T03:08:22;6.90;99.90
25154;DHT22;47555;51.038;6.280;2022-11-30T03:10:52;6.90;99.90
25154;DHT22;47555;51.038;6.280;2022-11-30T03:13:18;6.90;99.90
25154;DHT22;47555;51.038;6.280;2022-11-30T03:15:43;6.90;99.90
25154;DHT22;47555;51.038;6.280;2022-11-30T03:18:14;6.90;99.90
25154;DHT22;47555;51.038;6.280;2022-11-30T03:20:40;6.90;99.90
25154;DHT22;47555;51.038;6.280;2022-11-30T03:23:06;6.90;99.90
25154;DHT22;47555;51.038;6.280;2022-11-30T03:25:38;6.90;99.90
25154;DHT22;47555;51.038;6.280;2022-11-30T03:28:04;6.90;99.90
25154;DHT22;47555;51.038;6.280;2022-11-30T03:30:29;6.90;99.90
25154;DHT22;47555;51.038;6.280;2022-11-30T03:32:55;6.90;99.90
25154;DHT22;47555;51.038;6.280;2022-11-30T03:35:20;6.90;99.90
25154;DHT22;47555;51.038;6.280;2022-11-30T03:37:46;6.90;99.90
25154;DHT22;47555;51.038;6.280;2022-11-30T03:40:14;6.90;99.90
25154;DHT22;47555;51.038;6.280;2022-11-30T03:42:42;6.90;99.90
25154;DHT22;47555;51.038;6.280;2022-11-30T03:45:08;6.90;99.90
25154;DHT22;47555;51.038;6.280;2022-11-30T03:47:34;6.90;99.90
25154;DHT22;47555;51.038;6.280;2022-11-30T03:49:59;7.00;99.90
25154;DHT22;47555;51.038;6.280;2022-11-30T03:52:25;7.00;99.90
25154;DHT22;47555;51.038;6.280;2022-11-30T03:54:50;7.00;99.90
25154;DHT22;47555;51.038;6.280;2022-11-30T03:57:18;7.00;99.90
25154;DHT22;47555;51.038;6.280;2022-11-30T03:59:44;7.00;99.90
25154;DHT22;47555;51.038;6.280;2022-11-30T04:02:09;6.90;99.90
25154;DHT22;47555;51.038;6.280;2022-11-30T04:04:37;7.00;99.90
25154;DHT22;47555;51.038;6.280;2022-11-30T04:07:03;6.90;99.90
25154;DHT22;47555;51.038;6.280;2022-11-30T04:09:31;6.90;99.90
25154;DHT22;47555;51.038;6.280;2022-11-30T04:11:57;6.90;99.90
25154;DHT22;47555;51.038;6.280;2022-11-30T04:14:30;6.90;99.90
25154;DHT22;47555;51.038;6.280;2022-11-30T04:16:57;7.00;99.90
25154;DHT22;47555;51.038;6.280;2022-11-30T04:19:25;6.90;99.90
25154;DHT22;47555;51.038;6.280;2022-11-30T04:21:50;7.00;99.90
25154;DHT22;47555;51.038;6.280;2022-11-30T04:24:16;7.00;99.90
25154;DHT22;47555;51.038;6.280;2022-11-30T04:26:44;7.00;99.90
25154;DHT22;47555;51.038;6.280;2022-11-30T04:29:10;7.00;99.90
25154;DHT22;47555;51.038;6.280;2022-11-30T04:31:36;7.00;99.90
25154;DHT22;47555;51.038;6.280;2022-11-30T04:34:01;7.00;99.90
25154;DHT22;47555;51.038;6.280;2022-11-30T04:36:29;7.00;99.90
25154;DHT22;47555;51.038;6.280;2022-11-30T04:38:54;7.00;99.90
25154;DHT22;47555;51.038;6.280;2022-11-30T04:41:20;7.10;99.90
25154;DHT22;47555;51.038;6.280;2022-11-30T04:43:45;7.00;99.90
25154;DHT22;47555;51.038;6.280;2022-11-30T04:46:14;7.10;99.90
25154;DHT22;47555;51.038;6.280;2022-11-30T04:48:39;7.10;99.90
25154;DHT22;47555;51.038;6.280;2022-11-30T04:51:06;7.10;99.90
25154;DHT22;47555;51.038;6.280;2022-11-30T04:53:34;7.00;99.90
25154;DHT22;47555;51.038;6.280;2022-11-30T04:56:08;7.10;99.90
25154;DHT22;47555;51.038;6.280;2022-11-30T04:58:34;7.00;99.90
25154;DHT22;47555;51.038;6.280;2022-11-30T05:01:00;7.00;99.90
25154;DHT22;47555;51.038;6.280;2022-11-30T05:03:36;7.00;99.90
25154;DHT22;47555;51.038;6.280;2022-11-30T05:06:02;7.00;99.90
25154;DHT22;47555;51.038;6.280;2022-11-30T05:08:28;6.90;99.90
25154;DHT22;47555;51.038;6.280;2022-11-30T05:10:56;6.90;99.90
25154;DHT22;47555;51.038;6.280;2022-11-30T05:13:23;6.90;99.90
25154;DHT22;47555;51.038;6.280;2022-11-30T05:15:51;6.90;99.90
25154;DHT22;47555;51.038;6.280;2022-11-30T05:18:20;6.90;99.90
25154;DHT22;47555;51.038;6.280;2022-11-30T05:20:51;6.90;99.90
25154;DHT22;47555;51.038;6.280;2022-11-30T05:23:20;6.90;99.90
25154;DHT22;47555;51.038;6.280;2022-11-30T05:25:49;6.80;99.90
25154;DHT22;47555;51.038;6.280;2022-11-30T05:28:15;6.80;99.90
25154;DHT22;47555;51.038;6.280;2022-11-30T05:30:41;6.80;99.90
25154;DHT22;47555;51.038;6.280;2022-11-30T05:33:07;6.80;99.90
25154;DHT22;47555;51.038;6.280;2022-11-30T05:35:39;6.80;99.90
25154;DHT22;47555;51.038;6.280;2022-11-30T05:38:04;6.70;99.90
25154;DHT22;47555;51.038;6.280;2022-11-30T05:40:32;6.70;99.90
25154;DHT22;47555;51.038;6.280;2022-11-30T05:43:01;6.70;99.90
25154;DHT22;47555;51.038;6.280;2022-11-30T05:45:29;6.70;99.90
25154;DHT22;47555;51.038;6.280;2022-11-30T05:47:57;6.70;99.90
25154;DHT22;47555;51.038;6.280;2022-11-30T05:50:25;6.60;99.90
25154;DHT22;47555;51.038;6.280;2022-11-30T05:52:52;6.60;99.90
25154;DHT22;47555;51.038;6.280;2022-11-30T05:55:21;6.60;99.90
25154;DHT22;47555;51.038;6.280;2022-11-30T05:57:46;6.60;99.90
25154;DHT22;47555;51.038;6.280;2022-11-30T06:00:15;6.60;99.90
25154;DHT22;47555;51.038;6.280;2022-11-30T06:02:41;6.60;99.90
25154;DHT22;47555;51.038;6.280;2022-11-30T06:05:09;6.60;99.90
25154;DHT22;47555;51.038;6.280;2022-11-30T06:07:38;6.60;99.90
25154;DHT22;47555;51.038;6.280;2022-11-30T06:10:07;6.60;99.90
25154;DHT22;47555;51.038;6.280;2022-11-30T06:12:35;6.60;99.90
25154;DHT22;47555;51.038;6.280;2022-11-30T06:15:00;6.60;99.90
25154;DHT22;47555;51.038;6.280;2022-11-30T06:17:26;6.60;99.90
25154;DHT22;47555;51.038;6.280;2022-11-30T06:19:55;6.60;99.90
25154;DHT22;47555;51.038;6.280;2022-11-30T06:22:20;6.60;99.90
25154;DHT22;47555;51.038;6.280;2022-11-30T06:24:53;6.60;99.90
25154;DHT22;47555;51.038;6.280;2022-11-30T06:27:21;6.50;99.90
25154;DHT22;47555;51.038;6.280;2022-11-30T06:29:47;6.60;99.90
25154;DHT22;47555;51.038;6.280;2022-11-30T06:32:12;6.60;99.90
25154;DHT22;47555;51.038;6.280;2022-11-30T06:34:41;6.60;99.90
25154;DHT22;47555;51.038;6.280;2022-11-30T06:37:20;6.50;99.90
25154;DHT22;47555;51.038;6.280;2022-11-30T06:39:46;6.50;99.90
25154;DHT22;47555;51.038;6.280;2022-11-30T06:42:14;6.50;99.90
25154;DHT22;47555;51.038;6.280;2022-11-30T06:44:39;6.50;99.90
25154;DHT22;47555;51.038;6.280;2022-11-30T06:47:05;6.50;99.90
25154;DHT22;47555;51.038;6.280;2022-11-30T06:49:30;6.60;99.90
25154;DHT22;47555;51.038;6.280;2022-11-30T06:51:56;6.50;99.90
25154;DHT22;47555;51.038;6.280;2022-11-30T06:54:21;6.50;99.90
25154;DHT22;47555;51.038;6.280;2022-11-30T06:56:49;6.50;99.90
25154;DHT22;47555;51.038;6.280;2022-11-30T06:59:25;6.40;99.90
25154;DHT22;47555;51.038;6.280;2022-11-30T07:01:57;6.40;99.90
25154;DHT22;47555;51.038;6.280;2022-11-30T07:04:24;6.40;99.90
25154;DHT22;47555;51.038;6.280;2022-11-30T07:06:50;6.30;99.90
25154;DHT22;47555;51.038;6.280;2022-11-30T07:09:30;6.30;99.90
25154;DHT22;47555;51.038;6.280;2022-11-30T07:11:56;6.30;99.90
25154;DHT22;47555;51.038;6.280;2022-11-30T07:14:24;6.20;99.90
25154;DHT22;47555;51.038;6.280;2022-11-30T07:16:50;6.20;99.90
25154;DHT22;47555;51.038;6.280;2022-11-30T07:19:16;6.20;99.90
25154;DHT22;47555;51.038;6.280;2022-11-30T07:21:42;6.20;99.90
25154;DHT22;47555;51.038;6.280;2022-11-30T07:24:07;6.20;99.90
25154;DHT22;47555;51.038;6.280;2022-11-30T07:26:54;6.20;99.90
25154;DHT22;47555;51.038;6.280;2022-11-30T07:29:21;6.10;99.90
25154;DHT22;47555;51.038;6.280;2022-11-30T07:31:50;6.10;99.90
25154;DHT22;47555;51.038;6.280;2022-11-30T07:34:21;6.10;99.90
25154;DHT22;47555;51.038;6.280;2022-11-30T07:36:47;6.10;99.90
25154;DHT22;47555;51.038;6.280;2022-11-30T07:39:13;6.10;99.90
25154;DHT22;47555;51.038;6.280;2022-11-30T07:41:41;6.10;99.90
25154;DHT22;47555;51.038;6.280;2022-11-30T07:44:07;6.10;99.90
25154;DHT22;47555;51.038;6.280;2022-11-30T07:46:34;6.00;99.90
25154;DHT22;47555;51.038;6.280;2022-11-30T07:49:10;6.00;99.90
25154;DHT22;47555;51.038;6.280;2022-11-30T07:51:36;6.00;99.90
25154;DHT22;47555;51.038;6.280;2022-11-30T07:54:02;5.90;99.90
25154;DHT22;47555;51.038;6.280;2022-11-30T07:56:31;5.90;99.90
25154;DHT22;47555;51.038;6.280;2022-11-30T07:59:00;5.90;99.90
25154;DHT22;47555;51.038;6.280;2022-11-30T08:01:28;5.90;99.90
25154;DHT22;47555;51.038;6.280;2022-11-30T08:03:54;5.80;99.90
25154;DHT22;47555;51.038;6.280;2022-11-30T08:06:24;5.80;99.90
25154;DHT22;47555;51.038;6.280;2022-11-30T08:08:56;5.80;99.90
25154;DHT22;47555;51.038;6.280;2022-11-30T08:11:29;5.80;99.90
25154;DHT22;47555;51.038;6.280;2022-11-30T08:13:58;5.70;99.90
25154;DHT22;47555;51.038;6.280;2022-11-30T08:16:35;5.70;99.90
25154;DHT22;47555;51.038;6.280;2022-11-30T08:19:01;5.60;99.90
25154;DHT22;47555;51.038;6.280;2022-11-30T08:21:31;5.60;99.90
25154;DHT22;47555;51.038;6.280;2022-11-30T08:23:57;5.60;99.90
25154;DHT22;47555;51.038;6.280;2022-11-30T08:26:27;5.60;99.90
25154;DHT22;47555;51.038;6.280;2022-11-30T08:28:54;5.60;99.90
25154;DHT22;47555;51.038;6.280;2022-11-30T08:31:38;5.60;99.90
25154;DHT22;47555;51.038;6.280;2022-11-30T08:34:09;5.60;99.90
25154;DHT22;47555;51.038;6.280;2022-11-30T08:36:35;5.60;99.90
25154;DHT22;47555;51.038;6.280;2022-11-30T08:39:05;5.70;99.90
25154;DHT22;47555;51.038;6.280;2022-11-30T08:41:32;5.70;99.90
25154;DHT22;47555;51.038;6.280;2022-11-30T08:44:01;5.70;99.90
25154;DHT22;47555;51.038;6.280;2022-11-30T08:46:29;5.80;99.90
25154;DHT22;47555;51.038;6.280;2022-11-30T08:48:54;5.80;99.90
25154;DHT22;47555;51.038;6.280;2022-11-30T08:51:20;5.80;99.90
25154;DHT22;47555;51.038;6.280;2022-11-30T08:53:47;5.90;99.90
25154;DHT22;47555;51.038;6.280;2022-11-30T08:56:15;5.90;99.90
25154;DHT22;47555;51.038;6.280;2022-11-30T08:58:41;5.90;99.90
25154;DHT22;47555;51.038;6.280;2022-11-30T09:01:11;6.00;99.90
25154;DHT22;47555;51.038;6.280;2022-11-30T09:03:40;6.00;99.90
25154;DHT22;47555;51.038;6.280;2022-11-30T09:06:09;6.00;99.90
25154;DHT22;47555;51.038;6.280;2022-11-30T09:08:35;6.10;99.90
25154;DHT22;47555;51.038;6.280;2022-11-30T09:13:39;6.20;99.90
25154;DHT22;47555;51.038;6.280;2022-11-30T09:16:08;6.30;99.90
25154;DHT22;47555;51.038;6.280;2022-11-30T09:18:36;6.30;99.90
25154;DHT22;47555;51.038;6.280;2022-11-30T09:21:05;6.30;99.90
25154;DHT22;47555;51.038;6.280;2022-11-30T09:23:35;6.40;99.90
25154;DHT22;47555;51.038;6.280;2022-11-30T09:26:04;6.40;99.90
25154;DHT22;47555;51.038;6.280;2022-11-30T09:28:30;6.40;99.90
25154;DHT22;47555;51.038;6.280;2022-11-30T09:31:08;6.50;99.90
25154;DHT22;47555;51.038;6.280;2022-11-30T09:33:35;6.50;99.90
25154;DHT22;47555;51.038;6.280;2022-11-30T09:36:06;6.50;99.90
25154;DHT22;47555;51.038;6.280;2022-11-30T09:38:35;6.50;99.90
25154;DHT22;47555;51.038;6.280;2022-11-30T09:41:05;6.50;99.90
25154;DHT22;47555;51.038;6.280;2022-11-30T09:49:22;6.40;99.90
25154;DHT22;47555;51.038;6.280;2022-11-30T09:51:53;6.40;99.90
25154;DHT22;47555;51.038;6.280;2022-11-30T09:54:39;6.40;99.90
25154;DHT22;47555;51.038;6.280;2022-11-30T09:59:57;6.30;99.90
25154;DHT22;47555;51.038;6.280;2022-11-30T10:02:31;6.40;99.90
25154;DHT22;47555;51.038;6.280;2022-11-30T10:04:58;6.30;99.90
25154;DHT22;47555;51.038;6.280;2022-11-30T10:07:58;6.40;99.90
25154;DHT22;47555;51.038;6.280;2022-11-30T10:26:56;6.30;99.90
25154;DHT22;47555;51.038;6.280;2022-11-30T10:29:34;6.40;99.90
25154;DHT22;47555;51.038;6.280;2022-11-30T10:32:17;6.40;99.90
25154;DHT22;47555;51.038;6.280;2022-11-30T10:34:45;6.40;99.90
25154;DHT22;47555;51.038;6.280;2022-11-30T10:37:26;6.40;99.90
25154;DHT22;47555;51.038;6.280;2022-11-30T10:40:04;6.40;99.90
25154;DHT22;47555;51.038;6.280;2022-11-30T10:42:41;6.40;99.90
25154;DHT22;47555;51.038;6.280;2022-11-30T10:45:16;6.40;99.90
25154;DHT22;47555;51.038;6.280;2022-11-30T10:47:49;6.40;99.90
25154;DHT22;47555;51.038;6.280;2022-11-30T10:50:16;6.50;99.90
25154;DHT22;47555;51.038;6.280;2022-11-30T10:52:47;6.50;99.90
25154;DHT22;47555;51.038;6.280;2022-11-30T10:55:22;6.50;99.90
25154;DHT22;47555;51.038;6.280;2022-11-30T10:57:57;6.50;99.90
25154;DHT22;47555;51.038;6.280;2022-11-30T11:00:27;6.60;99.90
25154;DHT22;47555;51.038;6.280;2022-11-30T11:02:53;6.60;99.90
25154;DHT22;47555;51.038;6.280;2022-11-30T11:07:56;6.60;99.90
25154;DHT22;47555;51.038;6.280;2022-11-30T11:10:43;6.60;99.90
25154;DHT22;47555;51.038;6.280;2022-11-30T11:13:15;6.60;99.90
25154;DHT22;47555;51.038;6.280;2022-11-30T11:15:55;6.70;99.90
25154;DHT22;47555;51.038;6.280;2022-11-30T11:18:26;6.70;99.90
25154;DHT22;47555;51.038;6.280;2022-11-30T11:21:15;6.70;99.90
25154;DHT22;47555;51.038;6.280;2022-11-30T11:23:42;6.80;99.90
25154;DHT22;47555;51.038;6.280;2022-11-30T11:26:18;6.80;99.90
25154;DHT22;47555;51.038;6.280;2022-11-30T11:28:49;6.80;99.90
25154;DHT22;47555;51.038;6.280;2022-11-30T11:31:37;6.80;99.90
25154;DHT22;47555;51.038;6.280;2022-11-30T11:34:07;6.90;99.90
25154;DHT22;47555;51.038;6.280;2022-11-30T11:36:46;6.90;99.90
25154;DHT22;47555;51.038;6.280;2022-11-30T11:39:33;6.90;99.90
25154;DHT22;47555;51.038;6.280;2022-11-30T11:41:59;7.00;99.90
25154;DHT22;47555;51.038;6.280;2022-11-30T11:44:25;7.00;99.90
25154;DHT22;47555;51.038;6.280;2022-11-30T11:47:02;7.00;99.90
25154;DHT22;47555;51.038;6.280;2022-11-30T11:49:31;7.00;99.90
25154;DHT22;47555;51.038;6.280;2022-11-30T11:54:53;7.00;99.90
25154;DHT22;47555;51.038;6.280;2022-11-30T11:57:25;7.00;99.90
25154;DHT22;47555;51.038;6.280;2022-11-30T12:00:15;7.10;99.90
25154;DHT22;47555;51.038;6.280;2022-11-30T12:05:40;7.10;99.90
25154;DHT22;47555;51.038;6.280;2022-11-30T12:11:02;7.10;99.90
25154;DHT22;47555;51.038;6.280;2022-11-30T12:13:37;7.10;99.90
25154;DHT22;47555;51.038;6.280;2022-11-30T12:30:26;7.30;99.90
25154;DHT22;47555;51.038;6.280;2022-11-30T12:38:58;7.40;99.90
25154;DHT22;47555;51.038;6.280;2022-11-30T12:50:24;7.50;99.90
25154;DHT22;47555;51.038;6.280;2022-11-30T13:01:41;7.50;99.90
25154;DHT22;47555;51.038;6.280;2022-11-30T13:04:19;7.50;99.90
25154;DHT22;47555;51.038;6.280;2022-11-30T13:07:03;7.50;99.90
25154;DHT22;47555;51.038;6.280;2022-11-30T13:09:47;7.50;99.90
25154;DHT22;47555;51.038;6.280;2022-11-30T13:12:20;7.50;99.90
25154;DHT22;47555;51.038;6.280;2022-11-30T13:14:52;7.50;99.90
25154;DHT22;47555;51.038;6.280;2022-11-30T13:17:21;7.50;99.90
25154;DHT22;47555;51.038;6.280;2022-11-30T13:22:43;7.60;99.90
25154;DHT22;47555;51.038;6.280;2022-11-30T13:25:34;7.50;99.90
25154;DHT22;47555;51.038;6.280;2022-11-30T13:28:26;7.50;99.90
25154;DHT22;47555;51.038;6.280;2022-11-30T13:31:18;7.50;99.90
25154;DHT22;47555;51.038;6.280;2022-11-30T13:33:56;7.50;99.90
25154;DHT22;47555;51.038;6.280;2022-11-30T13:36:37;7.50;99.90
25154;DHT22;47555;51.038;6.280;2022-11-30T13:41:40;7.40;99.90
25154;DHT22;47555;51.038;6.280;2022-11-30T13:44:29;7.50;99.90
25154;DHT22;47555;51.038;6.280;2022-11-30T13:46:57;7.40;99.90
25154;DHT22;47555;51.038;6.280;2022-11-30T13:49:27;7.40;99.90
25154;DHT22;47555;51.038;6.280;2022-11-30T13:51:59;7.40;99.90
25154;DHT22;47555;51.038;6.280;2022-11-30T13:54:43;7.40;99.90
25154;DHT22;47555;51.038;6.280;2022-11-30T13:59:57;7.40;99.90
25154;DHT22;47555;51.038;6.280;2022-11-30T14:10:46;7.50;99.90
25154;DHT22;47555;51.038;6.280;2022-11-30T14:21:00;7.40;99.90
25154;DHT22;47555;51.038;6.280;2022-11-30T14:23:47;7.40;99.90
25154;DHT22;47555;51.038;6.280;2022-11-30T14:26:17;7.40;99.90
25154;DHT22;47555;51.038;6.280;2022-11-30T14:28:51;7.40;99.90
25154;DHT22;47555;51.038;6.280;2022-11-30T14:31:24;7.40;99.90
25154;DHT22;47555;51.038;6.280;2022-11-30T14:33:54;7.40;99.90
25154;DHT22;47555;51.038;6.280;2022-11-30T14:36:26;7.40;99.90
25154;DHT22;47555;51.038;6.280;2022-11-30T14:38:55;7.50;99.90
25154;DHT22;47555;51.038;6.280;2022-11-30T14:41:28;7.30;99.90
25154;DHT22;47555;51.038;6.280;2022-11-30T14:44:01;7.30;99.90
25154;DHT22;47555;51.038;6.280;2022-11-30T14:46:27;7.30;99.90
25154;DHT22;47555;51.038;6.280;2022-11-30T14:49:13;7.40;99.90
25154;DHT22;47555;51.038;6.280;2022-11-30T14:51:46;7.30;99.90
25154;DHT22;47555;51.038;6.280;2022-11-30T14:57:56;7.30;99.90
25154;DHT22;47555;51.038;6.280;2022-11-30T15:00:29;7.30;99.90
25154;DHT22;47555;51.038;6.280;2022-11-30T15:03:02;7.30;99.90
25154;DHT22;47555;51.038;6.280;2022-11-30T15:05:28;7.30;99.90
25154;DHT22;47555;51.038;6.280;2022-11-30T15:07:58;7.20;99.90
25154;DHT22;47555;51.038;6.280;2022-11-30T15:10:31;7.20;99.90
25154;DHT22;47555;51.038;6.280;2022-11-30T15:13:00;7.20;99.90
25154;DHT22;47555;51.038;6.280;2022-11-30T15:15:27;7.20;99.90
25154;DHT22;47555;51.038;6.280;2022-11-30T15:18:18;7.20;99.90
25154;DHT22;47555;51.038;6.280;2022-11-30T15:20:48;7.20;99.90
25154;DHT22;47555;51.038;6.280;2022-11-30T15:23:15;7.10;99.90
25154;DHT22;47555;51.038;6.280;2022-11-30T15:25:44;7.10;99.90
25154;DHT22;47555;51.038;6.280;2022-11-30T15:28:16;7.10;99.90
25154;DHT22;47555;51.038;6.280;2022-11-30T15:30:45;7.10;99.90
25154;DHT22;47555;51.038;6.280;2022-11-30T15:33:19;7.10;99.90
25154;DHT22;47555;51.038;6.280;2022-11-30T15:35:47;7.00;99.90
25154;DHT22;47555;51.038;6.280;2022-11-30T15:38:18;7.00;99.90
25154;DHT22;47555;51.038;6.280;2022-11-30T15:40:45;7.00;99.90
25154;DHT22;47555;51.038;6.280;2022-11-30T15:43:22;7.00;99.90
25154;DHT22;47555;51.038;6.280;2022-11-30T15:45:54;7.00;99.90
25154;DHT22;47555;51.038;6.280;2022-11-30T15:48:29;6.90;99.90
25154;DHT22;47555;51.038;6.280;2022-11-30T15:50:56;6.90;99.90
25154;DHT22;47555;51.038;6.280;2022-11-30T15:53:24;6.90;99.90
25154;DHT22;47555;51.038;6.280;2022-11-30T15:55:56;6.90;99.90
25154;DHT22;47555;51.038;6.280;2022-11-30T15:58:39;6.90;99.90
25154;DHT22;47555;51.038;6.280;2022-11-30T16:01:19;6.90;99.90
25154;DHT22;47555;51.038;6.280;2022-11-30T16:06:20;6.80;99.90
25154;DHT22;47555;51.038;6.280;2022-11-30T16:08:47;6.80;99.90
25154;DHT22;47555;51.038;6.280;2022-11-30T16:11:15;6.80;99.90
25154;DHT22;47555;51.038;6.280;2022-11-30T16:13:49;6.80;99.90
25154;DHT22;47555;51.038;6.280;2022-11-30T16:16:20;6.80;99.90
25154;DHT22;47555;51.038;6.280;2022-11-30T16:18:46;6.80;99.90
25154;DHT22;47555;51.038;6.280;2022-11-30T16:21:15;6.80;99.90
25154;DHT22;47555;51.038;6.280;2022-11-30T16:23:44;6.80;99.90
25154;DHT22;47555;51.038;6.280;2022-11-30T16:26:16;6.80;99.90
25154;DHT22;47555;51.038;6.280;2022-11-30T16:28:42;6.80;99.90
25154;DHT22;47555;51.038;6.280;2022-11-30T16:31:16;6.80;99.90
25154;DHT22;47555;51.038;6.280;2022-11-30T16:33:46;6.70;99.90
25154;DHT22;47555;51.038;6.280;2022-11-30T16:36:20;6.70;99.90
25154;DHT22;47555;51.038;6.280;2022-11-30T16:38:50;6.70;99.90
25154;DHT22;47555;51.038;6.280;2022-11-30T16:41:19;6.70;99.90
25154;DHT22;47555;51.038;6.280;2022-11-30T16:43:47;6.70;99.90
25154;DHT22;47555;51.038;6.280;2022-11-30T16:46:15;6.70;99.90
25154;DHT22;47555;51.038;6.280;2022-11-30T16:48:44;6.70;99.90
25154;DHT22;47555;51.038;6.280;2022-11-30T16:51:14;6.70;99.90
25154;DHT22;47555;51.038;6.280;2022-11-30T16:53:44;6.70;99.90
25154;DHT22;47555;51.038;6.280;2022-11-30T16:56:11;6.70;99.90
25154;DHT22;47555;51.038;6.280;2022-11-30T16:58:40;6.70;99.90
25154;DHT22;47555;51.038;6.280;2022-11-30T17:01:20;6.70;99.90
25154;DHT22;47555;51.038;6.280;2022-11-30T17:03:48;6.70;99.90
25154;DHT22;47555;51.038;6.280;2022-11-30T17:06:17;6.70;99.90
25154;DHT22;47555;51.038;6.280;2022-11-30T17:08:43;6.70;99.90
25154;DHT22;47555;51.038;6.280;2022-11-30T17:11:30;6.70;99.90
25154;DHT22;47555;51.038;6.280;2022-11-30T17:13:58;6.70;99.90
25154;DHT22;47555;51.038;6.280;2022-11-30T17:16:26;6.70;99.90
25154;DHT22;47555;51.038;6.280;2022-11-30T17:18:52;6.70;99.90
25154;DHT22;47555;51.038;6.280;2022-11-30T17:21:20;6.70;99.90
25154;DHT22;47555;51.038;6.280;2022-11-30T17:23:48;6.70;99.90
25154;DHT22;47555;51.038;6.280;2022-11-30T17:26:13;6.70;99.90
25154;DHT22;47555;51.038;6.280;2022-11-30T17:28:39;6.70;99.90
25154;DHT22;47555;51.038;6.280;2022-11-30T17:31:10;6.70;99.90
25154;DHT22;47555;51.038;6.280;2022-11-30T17:33:36;6.60;99.90
25154;DHT22;47555;51.038;6.280;2022-11-30T17:36:04;6.60;99.90
25154;DHT22;47555;51.038;6.280;2022-11-30T17:38:31;6.60;99.90
25154;DHT22;47555;51.038;6.280;2022-11-30T17:41:03;6.60;99.90
25154;DHT22;47555;51.038;6.280;2022-11-30T17:43:29;6.60;99.90
25154;DHT22;47555;51.038;6.280;2022-11-30T17:45:54;6.60;99.90
25154;DHT22;47555;51.038;6.280;2022-11-30T17:48:20;6.60;99.90
25154;DHT22;47555;51.038;6.280;2022-11-30T17:50:51;6.60;99.90
25154;DHT22;47555;51.038;6.280;2022-11-30T17:53:17;6.60;99.90
25154;DHT22;47555;51.038;6.280;2022-11-30T17:55:43;6.60;99.90
25154;DHT22;47555;51.038;6.280;2022-11-30T17:58:11;6.60;99.90